sensor_id;sensor_type;location;lat;lon;timestamp;P1;durP1;ratioP1;P2;durP2;ratioP2
76837;SDS011;65797;47.352;8.164;2023-08-20T07:40:51;11.13;;;7.10;;
76837;SDS011;65797;47.352;8.164;2023-08-20T07:45:52;8.73;;;7.03;;
76837;SDS011;65797;47.352;8.164;2023-08-20T07:48:18;7.10;;;6.40;;
76837;SDS011;65797;47.352;8.164;2023-08-20T07:50:43;11.17;;;6.90;;
76837;SDS011;65797;47.352;8.164;2023-08-20T07:53:09;9.83;;;7.47;;
76837;SDS011;65797;47.352;8.164;2023-08-20T07:55:35;11.00;;;6.20;;
76837;SDS011;65797;47.352;8.164;2023-08-20T07:58:01;8.03;;;6.37;;
76837;SDS011;65797;47.352;8.164;2023-08-20T08:00:27;9.63;;;6.70;;
76837;SDS011;65797;47.352;8.164;2023-08-20T08:13:15;10.23;;;6.30;;
76837;SDS011;65797;47.352;8.164;2023-08-20T08:51:58;8.73;;;6.67;;
76837;SDS011;65797;47.352;8.164;2023-08-20T08:54:24;14.60;;;7.03;;
76837;SDS011;65797;47.352;8.164;2023-08-20T08:56:51;10.13;;;7.50;;
76837;SDS011;65797;47.352;8.164;2023-08-20T08:59:18;12.50;;;7.30;;
76837;SDS011;65797;47.352;8.164;2023-08-20T09:01:44;9.13;;;6.40;;
76837;SDS011;65797;47.352;8.164;2023-08-20T09:04:10;10.07;;;6.93;;
76837;SDS011;65797;47.352;8.164;2023-08-20T09:21:59;8.00;;;7.07;;
76837;SDS011;65797;47.352;8.164;2023-08-20T09:32:15;7.27;;;6.30;;
76837;SDS011;65797;47.352;8.164;2023-08-20T09:39:52;10.10;;;7.10;;
76837;SDS011;65797;47.352;8.164;2023-08-20T09:42:21;10.00;;;6.37;;
76837;SDS011;65797;47.352;8.164;2023-08-20T17:44:39;7.73;;;5.00;;
76837;SDS011;65797;47.352;8.164;2023-08-20T17:47:04;5.33;;;4.33;;
76837;SDS011;65797;47.352;8.164;2023-08-20T17:49:31;4.90;;;4.50;;
76837;SDS011;65797;47.352;8.164;2023-08-20T17:51:57;7.47;;;4.87;;
76837;SDS011;65797;47.352;8.164;2023-08-20T17:56:58;6.30;;;4.63;;
76837;SDS011;65797;47.352;8.164;2023-08-20T17:59:24;5.03;;;4.23;;
76837;SDS011;65797;47.352;8.164;2023-08-20T18:01:50;7.00;;;4.20;;
76837;SDS011;65797;47.352;8.164;2023-08-20T19:21:06;9.10;;;4.87;;
76837;SDS011;65797;47.352;8.164;2023-08-20T19:23:32;10.57;;;5.43;;
76837;SDS011;65797;47.352;8.164;2023-08-20T19:25:58;5.33;;;4.80;;
76837;SDS011;65797;47.352;8.164;2023-08-20T19:28:24;8.67;;;5.60;;
76837;SDS011;65797;47.352;8.164;2023-08-20T19:30:51;11.40;;;5.60;;
76837;SDS011;65797;47.352;8.164;2023-08-20T19:33:21;8.93;;;4.83;;
76837;SDS011;65797;47.352;8.164;2023-08-20T19:35:47;8.37;;;5.10;;
76837;SDS011;65797;47.352;8.164;2023-08-20T19:38:13;11.57;;;4.73;;
76837;SDS011;65797;47.352;8.164;2023-08-20T19:40:39;5.80;;;4.50;;
76837;SDS011;65797;47.352;8.164;2023-08-20T19:43:06;7.10;;;4.43;;
76837;SDS011;65797;47.352;8.164;2023-08-20T19:45:33;8.13;;;5.17;;
76837;SDS011;65797;47.352;8.164;2023-08-20T19:47:59;8.03;;;4.80;;
76837;SDS011;65797;47.352;8.164;2023-08-20T19:50:25;5.57;;;5.07;;
76837;SDS011;65797;47.352;8.164;2023-08-20T19:52:50;5.80;;;4.77;;
76837;SDS011;65797;47.352;8.164;2023-08-20T19:55:17;12.77;;;5.10;;
76837;SDS011;65797;47.352;8.164;2023-08-20T19:57:42;8.50;;;5.10;;
76837;SDS011;65797;47.352;8.164;2023-08-20T20:00:09;9.17;;;4.53;;
76837;SDS011;65797;47.352;8.164;2023-08-20T20:02:39;8.60;;;5.40;;
76837;SDS011;65797;47.352;8.164;2023-08-20T20:07:53;7.93;;;4.93;;
76837;SDS011;65797;47.352;8.164;2023-08-20T20:10:20;9.60;;;5.07;;
76837;SDS011;65797;47.352;8.164;2023-08-20T20:17:57;7.00;;;5.33;;
76837;SDS011;65797;47.352;8.164;2023-08-20T20:20:23;6.37;;;5.77;;
76837;SDS011;65797;47.352;8.164;2023-08-20T20:22:53;17.10;;;5.70;;
76837;SDS011;65797;47.352;8.164;2023-08-20T20:27:54;8.47;;;5.87;;
76837;SDS011;65797;47.352;8.164;2023-08-20T20:35:34;8.20;;;6.00;;
76837;SDS011;65797;47.352;8.164;2023-08-20T21:58:28;12.07;;;6.17;;
